Time;durP1;ratioP1;P1;durP2;ratioP2;P2;SDS_P1;SDS_P2;PMS_P1;PMS_P2;Temp;Humidity;BMP_temperature;BMP_pressure;BME280_temperature;BME280_humidity;BME280_pressure;Samples;Min_cycle;Max_cycle;Signal;HPM_P1;HPM_P2
2021/04/28 00:02:12;;;;;;;7.45;4.25;;;;;;;7.71;50.25;100596.28;5165012;28;20435;-77
2021/04/28 00:04:42;;;;;;;10.05;3.83;;;;;;;7.65;51.12;100588.06;5165003;28;20150;-77
2021/04/28 00:07:13;;;;;;;12.48;4.32;;;;;;;7.62;50.69;100591.00;5164810;28;20034;-78
2021/04/28 00:09:44;;;;;;;7.75;4.35;;;;;;;7.54;51.02;100589.13;5165422;28;20031;-78
2021/04/28 00:12:14;;;;;;;13.15;4.32;;;;;;;7.53;52.08;100577.63;5180189;28;20109;-78
2021/04/28 00:14:45;;;;;;;7.38;4.03;;;;;;;7.49;51.83;100576.22;5167822;28;20460;-77
2021/04/28 00:17:15;;;;;;;18.70;3.80;;;;;;;7.46;51.43;100576.53;5184054;28;20081;-79
2021/04/28 00:19:46;;;;;;;6.72;3.90;;;;;;;7.39;52.49;100578.16;5166570;28;20436;-77
2021/04/28 00:22:16;;;;;;;10.30;4.15;;;;;;;7.18;54.66;100580.28;5176299;28;20026;-78
2021/04/28 00:24:46;;;;;;;10.82;4.47;;;;;;;6.92;57.14;100577.47;5171800;28;20022;-77
2021/04/28 00:27:17;;;;;;;12.13;3.95;;;;;;;6.73;63.59;100578.44;5171980;28;20061;-77
2021/04/28 00:29:47;;;;;;;8.77;4.10;;;;;;;6.60;61.75;100573.41;5171594;28;20026;-79
2021/04/28 00:32:18;;;;;;;10.05;4.03;;;;;;;6.52;62.71;100561.81;5184267;28;20021;-77
2021/04/28 00:34:48;;;;;;;10.35;4.70;;;;;;;6.51;60.02;100568.13;5174711;28;20502;-77
2021/04/28 00:37:19;;;;;;;10.25;3.80;;;;;;;6.57;58.91;100559.53;5166970;28;20053;-77
2021/04/28 00:39:49;;;;;;;8.18;3.78;;;;;;;6.62;59.32;100559.94;5174744;28;20018;-77
2021/04/28 00:42:20;;;;;;;8.27;3.80;;;;;;;6.67;58.41;100561.16;5167721;28;20045;-79
2021/04/28 00:44:51;;;;;;;10.02;4.00;;;;;;;6.52;61.55;100551.97;5173501;28;20033;-78
2021/04/28 00:47:21;;;;;;;10.25;4.10;;;;;;;6.33;65.17;100554.75;5169289;28;20026;-77
2021/04/28 00:49:52;;;;;;;7.80;4.22;;;;;;;6.23;65.92;100544.13;5172133;28;20041;-77
2021/04/28 00:52:22;;;;;;;12.05;5.05;;;;;;;6.20;66.64;100547.91;5183492;28;20034;-78
2021/04/28 00:54:53;;;;;;;9.25;4.97;;;;;;;6.10;66.24;100540.94;5170312;28;20080;-77
2021/04/28 00:57:24;;;;;;;9.43;4.60;;;;;;;6.07;66.72;100543.88;5163606;28;20084;-78
2021/04/28 00:59:54;;;;;;;8.88;4.40;;;;;;;6.08;64.94;100542.91;5178166;28;20479;-77
2021/04/28 01:02:25;;;;;;;11.07;4.53;;;;;;;6.01;65.43;100533.81;5175946;28;20031;-79
2021/04/28 01:04:56;;;;;;;8.88;4.55;;;;;;;5.96;66.37;100534.22;5167146;28;20495;-77
2021/04/28 01:07:27;;;;;;;9.48;4.25;;;;;;;5.94;68.45;100531.72;5185096;28;20045;-78
2021/04/28 01:09:58;;;;;;;7.90;4.18;;;;;;;5.89;67.80;100533.09;5171614;28;20041;-77
2021/04/28 01:12:30;;;;;;;9.43;4.78;;;;;;;5.83;70.84;100531.88;5172329;28;20030;-77
2021/04/28 01:15:01;;;;;;;8.52;4.30;;;;;;;5.82;71.84;100526.66;5169259;28;20033;-78
2021/04/28 01:17:32;;;;;;;9.20;5.47;;;;;;;5.69;71.94;100524.31;5184917;28;20483;-77
2021/04/28 01:20:07;;;;;;;14.52;4.60;;;;;;;5.68;69.48;100522.66;5171156;28;20037;-78
2021/04/28 01:22:41;;;;;;;11.13;4.80;;;;;;;5.69;69.27;100522.50;5183223;28;20030;-79
2021/04/28 01:25:15;;;;;;;8.50;4.65;;;;;;;5.67;66.71;100512.97;5164454;28;20040;-77
2021/04/28 01:27:53;;;;;;;10.67;4.53;;;;;;;5.71;66.52;100509.88;5166139;28;20026;-78
2021/04/28 01:30:28;;;;;;;12.57;5.00;;;;;;;5.77;66.52;100507.63;5183852;28;20280;-77
2021/04/28 01:33:00;;;;;;;10.45;4.63;;;;;;;5.75;63.83;100505.13;5171005;28;20483;-78
2021/04/28 01:35:32;;;;;;;6.97;3.88;;;;;;;5.82;64.02;100503.53;5184210;28;20029;-77
2021/04/28 01:38:05;;;;;;;13.05;4.75;;;;;;;5.80;63.31;100508.19;5151218;28;20030;-78
2021/04/28 01:40:37;;;;;;;9.25;4.80;;;;;;;5.79;63.51;100511.00;5178356;28;20037;-77
2021/04/28 01:43:08;;;;;;;12.18;4.40;;;;;;;5.83;62.86;100502.59;5175005;28;20030;-77
2021/04/28 01:45:43;;;;;;;8.02;4.32;;;;;;;5.78;64.15;100511.97;5166723;28;20030;-77
2021/04/28 01:48:15;;;;;;;14.25;4.70;;;;;;;5.65;66.78;100501.63;5173479;28;20026;-78
2021/04/28 01:50:49;;;;;;;8.07;4.65;;;;;;;5.59;65.83;100504.88;5176734;28;20042;-77
2021/04/28 01:53:23;;;;;;;11.93;5.30;;;;;;;5.56;66.43;100503.31;5163131;28;20027;-77
2021/04/28 01:55:56;;;;;;;10.65;5.28;;;;;;;5.51;72.82;100512.72;5176843;28;20030;-77
2021/04/28 01:58:28;;;;;;;11.48;5.05;;;;;;;5.34;74.05;100501.81;5155810;28;20480;-77
2021/04/28 02:00:59;;;;;;;10.38;4.78;;;;;;;5.28;71.77;100506.88;5172495;28;20022;-77
2021/04/28 02:03:30;;;;;;;10.75;5.05;;;;;;;5.35;68.87;100502.66;5180304;28;20033;-77
2021/04/28 02:06:03;;;;;;;11.90;5.68;;;;;;;5.40;72.04;100505.72;5171054;28;20101;-79
2021/04/28 02:08:39;;;;;;;9.25;5.80;;;;;;;5.44;69.43;100504.47;5176934;28;20034;-77
2021/04/28 02:11:10;;;;;;;14.75;5.35;;;;;;;5.38;77.45;100507.69;5163671;28;20472;-77
2021/04/28 02:13:44;;;;;;;9.05;5.07;;;;;;;5.29;74.79;100497.91;5163718;28;20058;-77
2021/04/28 02:16:15;;;;;;;9.67;5.43;;;;;;;5.21;82.10;100495.91;5176203;28;20502;-77
2021/04/28 02:18:46;;;;;;;10.80;5.80;;;;;;;5.10;84.64;100494.25;5166753;28;20790;-78
2021/04/28 02:21:17;;;;;;;10.93;5.50;;;;;;;5.08;82.46;100504.19;5170909;28;20057;-79
2021/04/28 02:23:48;;;;;;;8.82;4.88;;;;;;;5.10;90.79;100498.72;5187209;28;20364;-77
2021/04/28 02:26:19;;;;;;;13.50;6.13;;;;;;;5.14;100.00;100505.44;5183103;28;20030;-78
2021/04/28 02:28:49;;;;;;;9.30;5.20;;;;;;;5.15;95.64;100507.13;5182586;28;20414;-79
2021/04/28 02:31:20;;;;;;;13.02;5.25;;;;;;;5.15;95.95;100510.63;5184533;28;20100;-79
2021/04/28 02:33:50;;;;;;;12.88;5.38;;;;;;;5.09;82.97;100499.72;5172823;28;20034;-78
2021/04/28 02:36:21;;;;;;;9.30;5.70;;;;;;;5.04;83.37;100494.81;5173473;28;20045;-78
2021/04/28 02:38:59;;;;;;;18.73;5.95;;;;;;;5.05;97.86;100492.97;5189186;28;20460;-78
2021/04/28 02:41:30;;;;;;;8.68;5.55;;;;;;;5.14;100.00;100500.13;5176903;28;20085;-77
2021/04/28 02:44:02;;;;;;;8.60;5.65;;;;;;;5.13;94.45;100490.47;5161728;28;20435;-78
2021/04/28 02:46:33;;;;;;;18.63;6.05;;;;;;;5.12;90.88;100486.97;5165764;28;20022;-78
2021/04/28 02:49:05;;;;;;;9.70;5.63;;;;;;;5.12;90.42;100488.78;5177957;28;20029;-78
2021/04/28 02:51:39;;;;;;;10.00;4.95;;;;;;;5.10;82.37;100486.28;5178001;28;20508;-79
2021/04/28 02:54:11;;;;;;;10.45;5.30;;;;;;;5.09;83.85;100483.75;5178323;28;20626;-79
2021/04/28 02:56:43;;;;;;;8.55;5.50;;;;;;;5.02;91.00;100491.47;5173389;28;20049;-79
2021/04/28 02:59:14;;;;;;;11.30;7.07;;;;;;;5.03;100.00;100485.16;5160923;28;20030;-79
2021/04/28 03:01:46;;;;;;;11.05;7.20;;;;;;;4.99;100.00;100473.13;5171726;28;20033;-79
2021/04/28 03:04:18;;;;;;;11.80;6.05;;;;;;;4.97;100.00;100472.44;5177889;28;20069;-78
2021/04/28 03:06:49;;;;;;;9.57;5.60;;;;;;;4.93;100.00;100473.69;5181797;28;20033;-79
2021/04/28 03:09:19;;;;;;;13.45;5.97;;;;;;;4.91;100.00;100473.78;5179043;28;20034;-79
2021/04/28 03:11:50;;;;;;;17.70;7.30;;;;;;;4.98;100.00;100475.91;5169968;28;20427;-79
2021/04/28 03:14:21;;;;;;;15.85;6.60;;;;;;;5.03;100.00;100471.88;5168499;28;20022;-78
2021/04/28 03:16:51;;;;;;;11.30;6.28;;;;;;;5.05;100.00;100463.75;5167930;28;20030;-78
2021/04/28 03:19:22;;;;;;;14.30;5.63;;;;;;;5.07;100.00;100462.63;5166593;28;20034;-79
2021/04/28 03:21:53;;;;;;;12.88;5.90;;;;;;;5.13;100.00;100463.88;5168168;28;20026;-79
2021/04/28 03:24:23;;;;;;;10.00;5.93;;;;;;;5.21;100.00;100461.34;5167795;28;20093;-78
2021/04/28 03:27:02;;;;;;;9.98;5.63;;;;;;;5.27;100.00;100452.81;5176375;28;20030;-78
2021/04/28 03:29:32;;;;;;;19.00;6.38;;;;;;;5.32;100.00;100449.72;5174336;28;20407;-79
2021/04/28 03:32:05;;;;;;;18.35;6.00;;;;;;;5.31;100.00;100445.38;5187280;28;20030;-78
2021/04/28 03:34:36;;;;;;;15.90;6.20;;;;;;;5.34;92.83;100443.28;5168126;28;20027;-79
2021/04/28 03:37:07;;;;;;;15.00;6.18;;;;;;;5.37;90.55;100451.00;5166734;28;20026;-79
2021/04/28 03:39:37;;;;;;;14.82;6.78;;;;;;;5.38;88.22;100449.16;5178445;28;20052;-78
2021/04/28 03:42:08;;;;;;;10.50;6.05;;;;;;;5.34;91.12;100445.94;5166222;28;20030;-79
2021/04/28 03:44:39;;;;;;;11.98;5.80;;;;;;;5.30;86.35;100438.38;5173448;28;20542;-79
2021/04/28 03:47:09;;;;;;;9.38;5.38;;;;;;;5.25;86.31;100448.63;5170745;28;20398;-78
2021/04/28 03:49:40;;;;;;;21.42;5.93;;;;;;;5.20;82.90;100454.34;5180081;28;20029;-79
2021/04/28 03:52:10;;;;;;;12.73;5.80;;;;;;;5.18;83.52;100445.69;5173317;28;20563;-79
2021/04/28 03:54:41;;;;;;;12.77;6.45;;;;;;;5.11;83.84;100457.84;5171313;28;20473;-79
2021/04/28 03:57:11;;;;;;;10.75;6.13;;;;;;;5.00;88.57;100458.00;5175837;28;20042;-77
2021/04/28 03:59:42;;;;;;;13.10;7.13;;;;;;;4.93;100.00;100463.88;5166161;28;20018;-79
2021/04/28 04:02:12;;;;;;;20.52;7.50;;;;;;;4.89;100.00;100461.63;5182844;28;20030;-79
2021/04/28 04:04:43;;;;;;;18.20;7.07;;;;;;;4.82;100.00;100469.34;5171199;28;20058;-79
2021/04/28 04:07:13;;;;;;;14.57;6.60;;;;;;;4.77;100.00;100468.91;5179148;28;20025;-78
2021/04/28 04:09:43;;;;;;;16.90;6.85;;;;;;;4.73;100.00;100461.34;5190886;28;20052;-77
2021/04/28 04:12:14;;;;;;;18.02;6.80;;;;;;;4.70;100.00;100469.59;5164557;28;20029;-78
2021/04/28 04:14:44;;;;;;;32.63;8.20;;;;;;;4.67;100.00;100478.69;5185614;28;20057;-78
2021/04/28 04:17:16;;;;;;;25.48;7.70;;;;;;;4.65;100.00;100478.81;5190027;28;20514;-79
2021/04/28 04:19:46;;;;;;;15.70;8.15;;;;;;;4.75;100.00;100488.63;5173050;28;20113;-79
2021/04/28 04:22:17;;;;;;;19.40;7.28;;;;;;;4.90;100.00;100482.75;5182603;28;20057;-79
2021/04/28 04:24:47;;;;;;;18.33;7.10;;;;;;;4.87;100.00;100477.75;5177745;28;20499;-79
2021/04/28 04:27:18;;;;;;;13.68;7.05;;;;;;;4.81;100.00;100480.91;5160452;28;20022;-77
2021/04/28 04:29:49;;;;;;;14.05;7.22;;;;;;;4.81;100.00;100483.56;5192736;28;20026;-79
2021/04/28 04:32:20;;;;;;;14.88;6.35;;;;;;;4.84;100.00;100474.50;5177199;28;20117;-79
2021/04/28 04:34:50;;;;;;;15.55;7.55;;;;;;;4.81;100.00;100472.94;5191074;28;20086;-77
2021/04/28 04:37:21;;;;;;;14.88;6.72;;;;;;;4.81;100.00;100478.25;5189619;28;20034;-78
2021/04/28 04:39:51;;;;;;;11.77;6.20;;;;;;;4.79;100.00;100472.25;5190701;28;20032;-79
2021/04/28 04:42:22;;;;;;;12.65;7.13;;;;;;;4.76;100.00;100472.53;5192871;28;20049;-79
2021/04/28 04:44:53;;;;;;;11.48;6.47;;;;;;;4.75;100.00;100470.00;5180721;28;20026;-79
2021/04/28 04:47:23;;;;;;;12.85;7.50;;;;;;;4.70;100.00;100461.63;5174965;28;20029;-79
2021/04/28 04:49:54;;;;;;;13.93;7.43;;;;;;;4.71;100.00;100458.81;5190355;28;20034;-79
2021/04/28 04:52:24;;;;;;;15.93;7.28;;;;;;;4.69;100.00;100458.13;5184411;28;20030;-79
2021/04/28 04:54:55;;;;;;;16.27;7.25;;;;;;;4.74;100.00;100458.53;5181979;28;20472;-78
2021/04/28 04:57:27;;;;;;;20.00;9.93;;;;;;;4.86;100.00;100453.94;5179024;28;20031;-78
2021/04/28 04:59:57;;;;;;;14.82;7.55;;;;;;;4.90;100.00;100452.69;5170446;28;20053;-78
2021/04/28 05:02:27;;;;;;;14.95;7.55;;;;;;;4.93;100.00;100461.22;5179211;28;20052;-78
2021/04/28 05:04:58;;;;;;;13.52;6.43;;;;;;;5.00;100.00;100466.81;5202350;28;20026;-78
2021/04/28 05:07:28;;;;;;;21.08;7.70;;;;;;;5.08;100.00;100466.13;5169237;28;20431;-78
2021/04/28 05:09:59;;;;;;;14.05;7.35;;;;;;;5.15;100.00;100470.72;5183401;28;20022;-77
2021/04/28 05:12:29;;;;;;;18.70;8.38;;;;;;;5.28;100.00;100473.13;5168563;28;20053;-78
2021/04/28 05:15:00;;;;;;;13.88;7.03;;;;;;;5.54;100.00;100467.19;5170662;28;20119;-79
2021/04/28 05:17:30;;;;;;;14.02;7.35;;;;;;;5.75;100.00;100467.00;5183448;28;20091;-79
2021/04/28 05:20:01;;;;;;;13.50;7.18;;;;;;;6.00;98.85;100468.22;5193549;28;20018;-79
2021/04/28 05:22:31;;;;;;;19.45;7.70;;;;;;;6.20;100.00;100467.16;5169238;28;20053;-78
2021/04/28 05:25:04;;;;;;;14.38;6.88;;;;;;;6.61;100.00;100472.97;5170110;28;20037;-79
2021/04/28 05:27:34;;;;;;;15.82;7.10;;;;;;;7.73;78.69;100465.28;5171032;28;20030;-79
2021/04/28 05:30:07;;;;;;;24.27;7.25;;;;;;;9.04;66.12;100470.19;5179405;28;20040;-80
2021/04/28 05:32:39;;;;;;;15.70;6.65;;;;;;;9.20;60.50;100468.50;5197252;28;20030;-79
2021/04/28 05:35:11;;;;;;;16.17;7.03;;;;;;;8.84;61.90;100462.63;5178059;28;20101;-79
2021/04/28 05:37:42;;;;;;;14.52;7.88;;;;;;;8.60;64.77;100469.56;5187451;28;20037;-77
2021/04/28 05:40:13;;;;;;;22.23;7.65;;;;;;;8.52;62.61;100462.34;5185722;28;20102;-79
2021/04/28 05:42:44;;;;;;;22.77;7.15;;;;;;;8.89;61.93;100468.31;5183741;28;20389;-78
2021/04/28 05:45:15;;;;;;;17.30;7.10;;;;;;;9.52;60.14;100462.31;5184756;28;20025;-79
2021/04/28 05:47:45;;;;;;;19.25;7.90;;;;;;;10.08;56.42;100468.56;5176540;28;20089;-79
2021/04/28 05:50:18;;;;;;;16.00;7.28;;;;;;;10.53;56.15;100470.59;5166296;28;20030;-79
2021/04/28 05:52:48;;;;;;;18.73;7.90;;;;;;;11.44;53.93;100468.97;5173977;28;20404;-79
2021/04/28 05:55:19;;;;;;;15.73;7.30;;;;;;;11.91;51.24;100467.91;5180878;28;20033;-79
2021/04/28 05:57:49;;;;;;;15.20;6.90;;;;;;;12.14;48.82;100463.25;5160056;28;20481;-80
2021/04/28 06:00:21;;;;;;;15.50;7.30;;;;;;;12.01;49.48;100465.78;5168364;28;20113;-80
2021/04/28 06:02:51;;;;;;;13.82;7.65;;;;;;;11.41;49.62;100462.13;5183938;28;20034;-80
2021/04/28 06:05:22;;;;;;;23.30;8.02;;;;;;;10.96;51.44;100457.63;5164461;28;20028;-80
2021/04/28 06:07:53;;;;;;;17.80;7.40;;;;;;;10.80;51.60;100455.88;5178523;28;20053;-80
2021/04/28 06:10:23;;;;;;;15.30;6.97;;;;;;;10.90;51.73;100455.66;5188884;28;20030;-80
2021/04/28 06:12:54;;;;;;;14.65;7.10;;;;;;;11.09;51.25;100471.28;5175535;28;20113;-78
2021/04/28 06:15:25;;;;;;;15.30;7.50;;;;;;;10.98;52.34;100463.63;5177906;28;20022;-79
2021/04/28 06:17:55;;;;;;;15.82;7.57;;;;;;;10.61;52.28;100467.03;5188239;28;20188;-79
2021/04/28 06:20:26;;;;;;;20.15;8.32;;;;;;;10.24;53.37;100462.34;5174400;28;20434;-81
2021/04/28 06:22:56;;;;;;;14.88;7.68;;;;;;;9.88;54.74;100456.56;5173764;28;20530;-82
2021/04/28 06:25:27;;;;;;;21.23;9.50;;;;;;;9.75;56.73;100451.75;5162118;28;20034;-80
2021/04/28 06:27:57;;;;;;;17.35;9.65;;;;;;;9.65;58.49;100453.78;5173673;28;20026;-80
2021/04/28 06:30:28;;;;;;;22.05;10.07;;;;;;;9.79;57.71;100461.13;5189288;28;20043;-80
2021/04/28 06:32:58;;;;;;;16.67;8.75;;;;;;;9.90;57.76;100451.88;5199034;28;20049;-79
2021/04/28 06:35:29;;;;;;;16.58;8.82;;;;;;;10.01;58.88;100452.34;5186018;28;20033;-79
2021/04/28 06:38:00;;;;;;;19.65;9.60;;;;;;;10.36;56.80;100450.25;5186293;28;20108;-79
2021/04/28 06:40:31;;;;;;;16.85;7.63;;;;;;;10.43;56.49;100451.19;5172654;28;20026;-78
2021/04/28 06:43:01;;;;;;;18.42;7.85;;;;;;;10.48;57.08;100451.50;5193349;28;20052;-79
2021/04/28 06:45:35;;;;;;;16.20;8.27;;;;;;;10.67;55.18;100450.25;5180060;28;20499;-80
2021/04/28 06:48:07;;;;;;;13.40;8.35;;;;;;;10.74;56.61;100453.03;5184574;28;20030;-78
2021/04/28 06:50:38;;;;;;;20.40;8.90;;;;;;;10.82;55.11;100451.16;5176535;28;20029;-79
2021/04/28 06:53:08;;;;;;;17.33;8.85;;;;;;;10.95;56.78;100449.75;5193300;28;20076;-80
2021/04/28 06:55:39;;;;;;;23.90;9.15;;;;;;;11.12;57.44;100441.38;5193072;28;20064;-80
2021/04/28 06:58:09;;;;;;;22.23;9.13;;;;;;;11.10;53.82;100438.06;5176658;28;20034;-78
2021/04/28 07:00:40;;;;;;;24.48;9.27;;;;;;;11.23;55.83;100433.91;5173059;28;20022;-80
2021/04/28 07:03:10;;;;;;;23.92;8.95;;;;;;;11.42;53.61;100449.53;5176261;28;20098;-80
2021/04/28 07:05:41;;;;;;;17.92;9.18;;;;;;;11.62;53.16;100437.25;5182506;28;20025;-79
2021/04/28 07:08:11;;;;;;;20.48;9.13;;;;;;;11.61;53.11;100446.34;5185574;28;20033;-79
2021/04/28 07:10:42;;;;;;;16.23;8.63;;;;;;;11.61;53.68;100440.97;5177040;28;20018;-79
2021/04/28 07:13:12;;;;;;;16.20;8.55;;;;;;;11.78;53.12;100440.78;5167586;28;20098;-80
2021/04/28 07:15:42;;;;;;;16.73;8.68;;;;;;;11.91;52.64;100441.88;5167608;28;20034;-80
2021/04/28 07:18:13;;;;;;;18.02;9.32;;;;;;;12.14;52.88;100436.38;5172264;28;20030;-79
2021/04/28 07:20:43;;;;;;;17.13;8.70;;;;;;;12.30;52.54;100435.38;5180721;28;20022;-78
2021/04/28 07:23:14;;;;;;;16.63;9.68;;;;;;;12.45;50.93;100446.09;5167843;28;20029;-79
2021/04/28 07:25:44;;;;;;;20.60;9.20;;;;;;;12.43;49.57;100435.50;5166757;28;20073;-80
2021/04/28 07:28:15;;;;;;;22.55;9.23;;;;;;;12.47;50.84;100441.34;5172173;28;20025;-82
2021/04/28 07:30:45;;;;;;;21.60;9.38;;;;;;;12.65;51.02;100441.78;5189424;28;20033;-81
2021/04/28 07:33:16;;;;;;;18.80;8.93;;;;;;;12.84;48.83;100444.88;5183638;28;20030;-80
2021/04/28 07:35:46;;;;;;;18.20;8.50;;;;;;;12.96;49.60;100436.13;5189918;28;20531;-81
2021/04/28 07:38:17;;;;;;;20.33;9.43;;;;;;;12.93;51.97;100435.66;5192780;28;20103;-81
2021/04/28 07:40:47;;;;;;;26.88;9.55;;;;;;;12.93;50.74;100436.50;5179066;28;20030;-81
2021/04/28 07:43:18;;;;;;;18.08;9.35;;;;;;;13.03;50.45;100433.47;5181379;28;20053;-81
2021/04/28 07:45:48;;;;;;;22.48;9.20;;;;;;;13.04;49.08;100424.38;5184563;28;20045;-80
2021/04/28 07:48:19;;;;;;;24.00;10.05;;;;;;;12.99;49.49;100424.13;5182773;28;20529;-78
2021/04/28 07:50:49;;;;;;;20.95;10.02;;;;;;;13.00;48.48;100415.00;5178634;28;20373;-83
2021/04/28 07:53:22;;;;;;;18.77;9.80;;;;;;;13.03;49.85;100413.81;5192496;28;20033;-80
2021/04/28 07:55:52;;;;;;;25.92;9.38;;;;;;;12.95;49.34;100412.06;5172036;28;20030;-78
2021/04/28 07:58:22;;;;;;;21.83;10.00;;;;;;;13.09;50.47;100410.34;5173411;28;20022;-81
2021/04/28 08:00:53;;;;;;;21.17;9.95;;;;;;;13.24;50.90;100412.97;5191288;28;20028;-80
2021/04/28 08:03:23;;;;;;;24.35;9.45;;;;;;;13.45;49.41;100397.63;5175983;28;20042;-81
2021/04/28 08:05:54;;;;;;;24.17;11.00;;;;;;;13.58;50.31;100398.75;5181358;28;20431;-81
2021/04/28 08:08:24;;;;;;;19.15;11.05;;;;;;;13.71;51.20;100396.97;5191525;28;20053;-80
2021/04/28 08:10:55;;;;;;;20.33;10.88;;;;;;;13.90;50.04;100400.81;5191490;28;20038;-80
2021/04/28 08:13:26;;;;;;;20.27;11.00;;;;;;;14.30;48.69;100402.88;5186144;28;20026;-80
2021/04/28 08:15:57;;;;;;;19.08;11.00;;;;;;;14.45;46.45;100400.84;5184406;28;20037;-81
2021/04/28 08:18:27;;;;;;;20.35;10.65;;;;;;;14.51;48.73;100402.81;5172130;28;20118;-81
2021/04/28 08:20:58;;;;;;;20.95;10.15;;;;;;;14.59;48.80;100401.75;5169875;28;20034;-81
2021/04/28 08:23:30;;;;;;;22.05;10.93;;;;;;;14.71;48.09;100392.88;5190313;28;20061;-81
2021/04/28 08:26:02;;;;;;;20.83;10.43;;;;;;;14.95;44.96;100396.03;5188753;28;20017;-81
2021/04/28 08:28:34;;;;;;;22.77;10.35;;;;;;;15.00;45.94;100394.38;5171069;28;20030;-81
2021/04/28 08:31:06;;;;;;;22.70;9.57;;;;;;;14.72;45.20;100389.16;5173997;28;20037;-79
2021/04/28 08:33:39;;;;;;;22.95;10.07;;;;;;;14.83;45.59;100387.72;5178663;28;20018;-80
2021/04/28 08:36:10;;;;;;;24.27;10.52;;;;;;;15.17;48.06;100392.13;5189362;28;20064;-80
2021/04/28 08:38:41;;;;;;;19.88;10.50;;;;;;;15.33;45.77;100381.94;5191568;28;20053;-80
2021/04/28 08:41:13;;;;;;;17.50;9.98;;;;;;;15.47;47.37;100389.00;5190065;28;20029;-81
2021/04/28 08:43:43;;;;;;;21.40;9.25;;;;;;;15.42;45.30;100396.91;5189185;28;20052;-80
2021/04/28 08:46:14;;;;;;;18.00;10.50;;;;;;;15.15;46.09;100393.34;5179033;28;20030;-82
2021/04/28 08:48:44;;;;;;;22.83;9.95;;;;;;;15.34;45.70;100397.94;5186047;28;20033;-81
2021/04/28 08:51:17;;;;;;;16.40;10.07;;;;;;;15.36;44.90;100387.75;5169869;28;20490;-82
2021/04/28 08:53:49;;;;;;;17.58;9.23;;;;;;;15.27;45.44;100399.81;5186870;28;20038;-82
2021/04/28 08:56:21;;;;;;;20.85;9.60;;;;;;;15.23;45.92;100396.69;5188057;28;20123;-81
2021/04/28 08:58:54;;;;;;;20.77;9.60;;;;;;;15.50;44.09;100392.09;5165612;28;20036;-81
2021/04/28 09:01:28;;;;;;;24.27;10.75;;;;;;;15.63;42.17;100390.41;5176240;28;20026;-82
2021/04/28 09:04:00;;;;;;;27.20;11.20;;;;;;;15.76;44.22;100388.56;5196930;28;20041;-81
2021/04/28 09:06:33;;;;;;;21.95;11.02;;;;;;;15.67;44.20;100381.72;5183037;28;20026;-82
2021/04/28 09:09:06;;;;;;;17.98;10.32;;;;;;;15.76;44.01;100382.31;5169671;28;20542;-81
2021/04/28 09:11:45;;;;;;;20.98;9.10;;;;;;;16.08;45.44;100377.84;5170157;28;20026;-83
2021/04/28 09:14:19;;;;;;;23.33;10.27;;;;;;;15.99;42.96;100379.13;5169551;28;20080;-79
2021/04/28 09:16:56;;;;;;;17.55;9.40;;;;;;;16.12;42.68;100368.28;5175652;28;20029;-81
2021/04/28 09:19:34;;;;;;;23.35;9.77;;;;;;;16.35;43.57;100375.84;5181048;28;20089;-81
2021/04/28 09:22:08;;;;;;;24.30;10.50;;;;;;;16.61;42.67;100371.34;5169354;28;20030;-82
2021/04/28 09:24:48;;;;;;;17.02;9.93;;;;;;;16.70;45.78;100373.59;5168586;28;20018;-81
2021/04/28 09:27:27;;;;;;;19.27;10.60;;;;;;;17.02;45.93;100373.63;5182266;28;20056;-81
2021/04/28 09:29:57;;;;;;;18.95;10.55;;;;;;;17.29;42.47;100364.22;5164808;28;20030;-81
2021/04/28 09:32:36;;;;;;;23.92;10.35;;;;;;;17.23;42.80;100373.25;5176994;28;20045;-82
2021/04/28 09:35:13;;;;;;;21.10;10.32;;;;;;;17.11;39.98;100364.16;5178820;28;20054;-82
2021/04/28 09:37:53;;;;;;;26.67;10.38;;;;;;;17.21;42.63;100356.34;5174018;28;20476;-79
2021/04/28 09:40:44;;;;;;;20.30;9.75;;;;;;;17.70;43.19;100359.25;5186898;28;20026;-79
2021/04/28 09:43:15;;;;;;;16.50;10.45;;;;;;;18.21;38.67;100360.78;5178636;28;20029;-81
2021/04/28 09:45:48;;;;;;;25.00;11.18;;;;;;;18.14;37.48;100360.03;5171177;28;20113;-81
2021/04/28 09:48:22;;;;;;;22.00;10.50;;;;;;;18.11;38.54;100355.88;5168652;28;20034;-83
2021/04/28 09:51:04;;;;;;;22.73;10.07;;;;;;;18.03;39.31;100353.50;5164621;28;20026;-82
2021/04/28 09:53:35;;;;;;;18.10;10.60;;;;;;;18.36;39.05;100348.44;5171244;28;20040;-79
2021/04/28 09:56:16;;;;;;;20.50;10.65;;;;;;;18.44;41.79;100351.91;5189334;28;20026;-82
2021/04/28 09:58:50;;;;;;;19.63;10.02;;;;;;;18.52;38.55;100348.88;5157111;28;20066;-82
2021/04/28 10:01:32;;;;;;;18.45;10.63;;;;;;;18.59;37.07;100349.63;5180595;28;20026;-81
2021/04/28 10:04:05;;;;;;;20.35;10.82;;;;;;;18.65;37.00;100354.13;5182268;28;20033;-81
2021/04/28 10:06:49;;;;;;;18.55;10.68;;;;;;;18.67;41.69;100343.00;5169121;28;20034;-81
2021/04/28 10:09:34;;;;;;;19.80;10.77;;;;;;;18.79;39.63;100341.22;5185530;28;20030;-80
2021/04/28 10:12:08;;;;;;;19.15;10.95;;;;;;;18.65;39.65;100335.09;5159315;28;20488;-80
2021/04/28 10:14:39;;;;;;;18.60;10.45;;;;;;;18.36;37.56;100334.03;5184712;28;20030;-80
2021/04/28 10:17:10;;;;;;;17.05;10.65;;;;;;;18.35;37.83;100329.69;5189581;28;20499;-80
2021/04/28 10:19:40;;;;;;;17.80;10.48;;;;;;;18.34;39.62;100330.75;5175738;28;20029;-80
2021/04/28 10:22:19;;;;;;;21.70;10.63;;;;;;;18.60;37.33;100326.81;5189541;28;20101;-81
2021/04/28 10:24:52;;;;;;;22.20;9.85;;;;;;;18.80;39.82;100327.38;5188420;28;20036;-78
2021/04/28 10:27:23;;;;;;;19.88;11.27;;;;;;;18.96;37.35;100316.88;5175758;28;20089;-79
2021/04/28 10:29:54;;;;;;;15.55;10.35;;;;;;;19.00;38.03;100320.78;5175174;28;20068;-81
2021/04/28 10:32:25;;;;;;;20.38;11.18;;;;;;;18.86;36.11;100320.19;5174700;28;20488;-83
2021/04/28 10:35:01;;;;;;;25.73;11.38;;;;;;;19.02;38.65;100316.75;5175707;28;20121;-83
2021/04/28 10:37:34;;;;;;;19.67;10.68;;;;;;;19.05;37.76;100316.31;5173147;28;20387;-83
2021/04/28 10:40:10;;;;;;;23.10;11.50;;;;;;;19.17;37.49;100305.44;5177163;28;20026;-82
2021/04/28 10:42:42;;;;;;;26.45;11.30;;;;;;;19.14;39.96;100303.19;5179245;28;20562;-81
2021/04/28 10:45:36;;;;;;;21.80;11.75;;;;;;;19.44;40.12;100294.09;5164679;28;20033;-82
2021/04/28 10:48:11;;;;;;;20.42;11.10;;;;;;;19.40;37.13;100297.28;5155836;28;20069;-82
2021/04/28 10:50:49;;;;;;;22.08;11.77;;;;;;;19.49;37.21;100296.94;5170683;28;20069;-79
2021/04/28 10:53:23;;;;;;;22.80;11.32;;;;;;;19.32;38.54;100291.38;5175509;28;20327;-81
2021/04/28 10:55:57;;;;;;;23.80;13.20;;;;;;;19.06;37.25;100290.78;5181958;28;20441;-82
2021/04/28 10:58:30;;;;;;;21.95;12.50;;;;;;;18.89;35.92;100285.22;5170245;28;20141;-81
2021/04/28 11:01:03;;;;;;;23.42;11.23;;;;;;;18.83;38.55;100288.88;5177885;28;20077;-80
2021/04/28 11:03:49;;;;;;;17.27;11.00;;;;;;;18.89;37.16;100278.94;5180312;28;20502;-80
2021/04/28 11:06:21;;;;;;;;;;;;;;;19.13;38.45;100272.47;5181153;28;20105;-82
2021/04/28 11:09:00;;;;;;;22.58;12.50;;;;;;;19.52;36.07;100274.66;5170152;28;20391;-83
2021/04/28 11:11:42;;;;;;;28.13;11.77;;;;;;;19.71;35.89;100275.38;5175702;28;20026;-78
2021/04/28 11:14:19;;;;;;;20.90;12.13;;;;;;;19.65;37.13;100278.00;5191945;28;20073;-80
2021/04/28 11:16:51;;;;;;;24.73;12.30;;;;;;;19.97;39.45;100271.28;5174901;28;20034;-83
2021/04/28 11:19:35;;;;;;;20.17;11.95;;;;;;;20.21;35.09;100263.84;5181087;28;20030;-82
2021/04/28 11:22:16;;;;;;;19.58;12.00;;;;;;;20.42;39.00;100266.69;5171935;28;20109;-81
2021/04/28 11:24:58;;;;;;;23.45;13.32;;;;;;;20.27;34.01;100265.59;5172550;28;20026;-84
2021/04/28 11:28:02;;;;;;;21.33;11.88;;;;;;;20.24;38.08;100263.38;5185888;28;20112;-79
2021/04/28 11:30:42;;;;;;;21.77;12.18;;;;;;;20.05;34.14;100268.19;5171262;28;20026;-81
2021/04/28 11:33:15;;;;;;;19.05;11.82;;;;;;;20.15;35.33;100257.50;5167313;28;20049;-82
2021/04/28 11:35:52;;;;;;;27.95;12.93;;;;;;;20.07;33.17;100255.97;5176150;28;20471;-82
2021/04/28 11:38:22;;;;;;;20.02;12.02;;;;;;;20.21;34.21;100261.13;5172979;28;20117;-82
2021/04/28 11:40:53;;;;;;;19.38;11.95;;;;;;;20.42;34.71;100255.81;5175300;28;20460;-81
2021/04/28 11:43:25;;;;;;;24.10;12.73;;;;;;;20.66;31.65;100247.53;5190507;28;20048;-82